sensor_id;sensor_type;location;lat;lon;timestamp;temperature;humidity
31675;DHT22;18276;45.520;11.018;2023-03-19T00:00:38;9.40;70.30
31675;DHT22;18276;45.520;11.018;2023-03-19T00:03:04;9.40;70.50
31675;DHT22;18276;45.520;11.018;2023-03-19T00:05:32;9.30;70.80
31675;DHT22;18276;45.520;11.018;2023-03-19T00:07:59;9.30;71.10
31675;DHT22;18276;45.520;11.018;2023-03-19T00:10:26;9.20;71.50
31675;DHT22;18276;45.520;11.018;2023-03-19T00:12:54;9.10;72.00
31675;DHT22;18276;45.520;11.018;2023-03-19T00:15:21;9.10;72.00
31675;DHT22;18276;45.520;11.018;2023-03-19T00:17:48;9.00;72.10
31675;DHT22;18276;45.520;11.018;2023-03-19T00:20:15;9.10;73.00
31675;DHT22;18276;45.520;11.018;2023-03-19T00:22:43;9.00;72.30
31675;DHT22;18276;45.520;11.018;2023-03-19T00:25:11;9.00;72.30
31675;DHT22;18276;45.520;11.018;2023-03-19T00:27:38;9.00;72.30
31675;DHT22;18276;45.520;11.018;2023-03-19T00:30:06;9.00;72.20
31675;DHT22;18276;45.520;11.018;2023-03-19T00:32:34;9.00;72.00
31675;DHT22;18276;45.520;11.018;2023-03-19T00:35:03;9.00;72.00
31675;DHT22;18276;45.520;11.018;2023-03-19T00:37:32;9.00;71.80
31675;DHT22;18276;45.520;11.018;2023-03-19T00:40:00;9.10;72.00
31675;DHT22;18276;45.520;11.018;2023-03-19T00:42:27;9.00;72.10
31675;DHT22;18276;45.520;11.018;2023-03-19T00:44:54;9.00;72.10
31675;DHT22;18276;45.520;11.018;2023-03-19T00:47:23;9.00;72.20
31675;DHT22;18276;45.520;11.018;2023-03-19T00:49:50;9.00;72.20
31675;DHT22;18276;45.520;11.018;2023-03-19T00:52:17;8.90;72.20
31675;DHT22;18276;45.520;11.018;2023-03-19T00:54:44;8.90;72.40
31675;DHT22;18276;45.520;11.018;2023-03-19T00:57:11;8.90;72.50
31675;DHT22;18276;45.520;11.018;2023-03-19T00:59:39;8.90;72.50
31675;DHT22;18276;45.520;11.018;2023-03-19T01:02:07;8.90;72.70
31675;DHT22;18276;45.520;11.018;2023-03-19T01:04:34;8.90;72.80
31675;DHT22;18276;45.520;11.018;2023-03-19T01:07:01;8.90;72.80
31675;DHT22;18276;45.520;11.018;2023-03-19T01:09:28;8.90;72.70
31675;DHT22;18276;45.520;11.018;2023-03-19T01:11:55;9.00;72.70
31675;DHT22;18276;45.520;11.018;2023-03-19T01:14:22;9.00;72.60
31675;DHT22;18276;45.520;11.018;2023-03-19T01:16:49;9.00;72.50
31675;DHT22;18276;45.520;11.018;2023-03-19T01:19:16;9.00;72.50
31675;DHT22;18276;45.520;11.018;2023-03-19T01:21:43;9.10;72.50
31675;DHT22;18276;45.520;11.018;2023-03-19T01:24:16;9.10;72.30
31675;DHT22;18276;45.520;11.018;2023-03-19T01:26:45;9.10;72.30
31675;DHT22;18276;45.520;11.018;2023-03-19T01:29:30;9.20;72.20
31675;DHT22;18276;45.520;11.018;2023-03-19T01:32:05;9.20;72.00
31675;DHT22;18276;45.520;11.018;2023-03-19T01:34:51;9.20;71.80
31675;DHT22;18276;45.520;11.018;2023-03-19T01:37:20;9.30;71.60
31675;DHT22;18276;45.520;11.018;2023-03-19T01:39:47;9.30;71.40
31675;DHT22;18276;45.520;11.018;2023-03-19T01:42:14;9.30;71.40
31675;DHT22;18276;45.520;11.018;2023-03-19T01:45:35;9.30;71.40
31675;DHT22;18276;45.520;11.018;2023-03-19T01:51:14;9.30;71.30
31675;DHT22;18276;45.520;11.018;2023-03-19T01:53:56;9.30;71.20
31675;DHT22;18276;45.520;11.018;2023-03-19T01:56:35;9.30;71.10
31675;DHT22;18276;45.520;11.018;2023-03-19T01:59:35;9.30;71.10
31675;DHT22;18276;45.520;11.018;2023-03-19T02:02:42;9.40;71.20
31675;DHT22;18276;45.520;11.018;2023-03-19T02:05:36;9.30;70.80
31675;DHT22;18276;45.520;11.018;2023-03-19T02:08:09;9.30;71.50
31675;DHT22;18276;45.520;11.018;2023-03-19T02:10:38;9.40;70.70
31675;DHT22;18276;45.520;11.018;2023-03-19T02:13:06;9.40;70.70
31675;DHT22;18276;45.520;11.018;2023-03-19T02:15:33;9.40;70.80
31675;DHT22;18276;45.520;11.018;2023-03-19T02:18:00;9.40;70.90
31675;DHT22;18276;45.520;11.018;2023-03-19T02:20:43;9.40;70.90
31675;DHT22;18276;45.520;11.018;2023-03-19T02:23:27;9.40;70.90
31675;DHT22;18276;45.520;11.018;2023-03-19T02:26:09;9.40;70.90
31675;DHT22;18276;45.520;11.018;2023-03-19T02:28:40;9.40;71.00
31675;DHT22;18276;45.520;11.018;2023-03-19T02:31:09;9.40;70.90
31675;DHT22;18276;45.520;11.018;2023-03-19T02:33:37;9.30;70.80
31675;DHT22;18276;45.520;11.018;2023-03-19T02:36:08;9.30;70.90
31675;DHT22;18276;45.520;11.018;2023-03-19T02:38:38;9.30;71.10
31675;DHT22;18276;45.520;11.018;2023-03-19T02:41:07;9.20;71.20
31675;DHT22;18276;45.520;11.018;2023-03-19T02:43:37;9.20;71.30
31675;DHT22;18276;45.520;11.018;2023-03-19T02:46:07;9.20;71.40
31675;DHT22;18276;45.520;11.018;2023-03-19T02:48:35;9.20;72.20
31675;DHT22;18276;45.520;11.018;2023-03-19T02:51:04;9.20;71.50
31675;DHT22;18276;45.520;11.018;2023-03-19T02:53:31;9.20;71.50
31675;DHT22;18276;45.520;11.018;2023-03-19T02:56:00;9.20;71.70
31675;DHT22;18276;45.520;11.018;2023-03-19T02:58:27;9.20;71.90
31675;DHT22;18276;45.520;11.018;2023-03-19T03:00:54;9.10;72.00
31675;DHT22;18276;45.520;11.018;2023-03-19T03:03:21;9.10;72.20
31675;DHT22;18276;45.520;11.018;2023-03-19T03:05:48;9.00;72.40
31675;DHT22;18276;45.520;11.018;2023-03-19T03:08:15;9.00;72.70
31675;DHT22;18276;45.520;11.018;2023-03-19T03:10:42;9.00;73.00
31675;DHT22;18276;45.520;11.018;2023-03-19T03:13:10;9.00;73.10
31675;DHT22;18276;45.520;11.018;2023-03-19T03:15:37;9.00;73.10
31675;DHT22;18276;45.520;11.018;2023-03-19T03:18:05;9.00;73.00
31675;DHT22;18276;45.520;11.018;2023-03-19T03:20:32;9.10;73.10
31675;DHT22;18276;45.520;11.018;2023-03-19T03:22:59;9.10;73.10
31675;DHT22;18276;45.520;11.018;2023-03-19T03:25:26;9.10;73.10
31675;DHT22;18276;45.520;11.018;2023-03-19T03:27:54;9.10;73.00
31675;DHT22;18276;45.520;11.018;2023-03-19T03:30:21;9.10;72.90
31675;DHT22;18276;45.520;11.018;2023-03-19T03:32:48;9.20;72.80
31675;DHT22;18276;45.520;11.018;2023-03-19T03:35:15;9.20;72.60
31675;DHT22;18276;45.520;11.018;2023-03-19T03:37:48;9.20;72.50
31675;DHT22;18276;45.520;11.018;2023-03-19T03:40:16;9.20;72.50
31675;DHT22;18276;45.520;11.018;2023-03-19T03:42:43;9.30;72.50
31675;DHT22;18276;45.520;11.018;2023-03-19T03:45:11;9.30;72.40
31675;DHT22;18276;45.520;11.018;2023-03-19T03:47:40;9.30;72.20
31675;DHT22;18276;45.520;11.018;2023-03-19T03:50:08;9.40;72.20
31675;DHT22;18276;45.520;11.018;2023-03-19T03:52:38;9.40;72.20
31675;DHT22;18276;45.520;11.018;2023-03-19T03:55:05;9.40;72.00
31675;DHT22;18276;45.520;11.018;2023-03-19T03:57:33;9.40;72.80
31675;DHT22;18276;45.520;11.018;2023-03-19T04:00:00;9.40;72.00
31675;DHT22;18276;45.520;11.018;2023-03-19T04:02:27;9.50;72.00
31675;DHT22;18276;45.520;11.018;2023-03-19T04:04:54;9.50;71.80
31675;DHT22;18276;45.520;11.018;2023-03-19T04:07:21;9.50;71.70
31675;DHT22;18276;45.520;11.018;2023-03-19T04:09:56;9.50;71.70
31675;DHT22;18276;45.520;11.018;2023-03-19T04:12:24;9.50;71.60
31675;DHT22;18276;45.520;11.018;2023-03-19T04:14:52;9.40;71.60
31675;DHT22;18276;45.520;11.018;2023-03-19T04:17:19;9.50;71.90
31675;DHT22;18276;45.520;11.018;2023-03-19T04:19:46;9.40;71.90
31675;DHT22;18276;45.520;11.018;2023-03-19T04:22:13;9.50;72.00
31675;DHT22;18276;45.520;11.018;2023-03-19T04:24:40;9.40;71.90
31675;DHT22;18276;45.520;11.018;2023-03-19T04:27:07;9.50;71.90
31675;DHT22;18276;45.520;11.018;2023-03-19T04:29:36;9.50;71.70
31675;DHT22;18276;45.520;11.018;2023-03-19T04:32:04;9.50;71.70
31675;DHT22;18276;45.520;11.018;2023-03-19T04:34:31;9.50;71.70
31675;DHT22;18276;45.520;11.018;2023-03-19T04:36:58;9.50;71.70
31675;DHT22;18276;45.520;11.018;2023-03-19T04:39:25;9.50;72.00
31675;DHT22;18276;45.520;11.018;2023-03-19T04:41:52;9.50;72.10
31675;DHT22;18276;45.520;11.018;2023-03-19T04:44:37;9.50;72.20
31675;DHT22;18276;45.520;11.018;2023-03-19T04:47:05;9.50;72.30
31675;DHT22;18276;45.520;11.018;2023-03-19T04:49:45;9.60;72.30
31675;DHT22;18276;45.520;11.018;2023-03-19T04:52:12;9.60;72.30
31675;DHT22;18276;45.520;11.018;2023-03-19T04:54:40;9.60;72.30
31675;DHT22;18276;45.520;11.018;2023-03-19T04:57:07;9.60;72.40
31675;DHT22;18276;45.520;11.018;2023-03-19T04:59:37;9.60;72.50
31675;DHT22;18276;45.520;11.018;2023-03-19T05:02:04;9.60;73.40
31675;DHT22;18276;45.520;11.018;2023-03-19T05:04:33;9.60;72.80
31675;DHT22;18276;45.520;11.018;2023-03-19T05:07:05;9.60;74.20
31675;DHT22;18276;45.520;11.018;2023-03-19T05:09:34;9.60;74.90
31675;DHT22;18276;45.520;11.018;2023-03-19T05:12:01;9.50;74.90
31675;DHT22;18276;45.520;11.018;2023-03-19T05:14:34;9.30;75.60
31675;DHT22;18276;45.520;11.018;2023-03-19T05:17:09;9.20;75.90
31675;DHT22;18276;45.520;11.018;2023-03-19T05:19:52;9.10;76.20
31675;DHT22;18276;45.520;11.018;2023-03-19T05:22:19;9.00;76.90
31675;DHT22;18276;45.520;11.018;2023-03-19T05:24:46;8.90;77.10
31675;DHT22;18276;45.520;11.018;2023-03-19T05:27:13;8.80;77.70
31675;DHT22;18276;45.520;11.018;2023-03-19T05:30:02;8.80;78.00
31675;DHT22;18276;45.520;11.018;2023-03-19T05:32:57;8.70;78.30
31675;DHT22;18276;45.520;11.018;2023-03-19T05:35:37;8.60;78.60
31675;DHT22;18276;45.520;11.018;2023-03-19T05:38:12;8.60;78.70
31675;DHT22;18276;45.520;11.018;2023-03-19T05:40:42;8.60;79.00
31675;DHT22;18276;45.520;11.018;2023-03-19T05:43:22;8.60;79.10
31675;DHT22;18276;45.520;11.018;2023-03-19T05:45:51;8.70;79.10
31675;DHT22;18276;45.520;11.018;2023-03-19T05:48:22;8.70;79.10
31675;DHT22;18276;45.520;11.018;2023-03-19T05:50:50;8.80;79.10
31675;DHT22;18276;45.520;11.018;2023-03-19T05:53:20;8.80;79.10
31675;DHT22;18276;45.520;11.018;2023-03-19T05:56:11;8.80;78.90
31675;DHT22;18276;45.520;11.018;2023-03-19T05:58:51;8.90;78.80
31675;DHT22;18276;45.520;11.018;2023-03-19T06:01:24;9.00;78.70
31675;DHT22;18276;45.520;11.018;2023-03-19T06:03:51;9.00;78.60
31675;DHT22;18276;45.520;11.018;2023-03-19T06:06:18;9.10;78.60
31675;DHT22;18276;45.520;11.018;2023-03-19T06:08:50;9.10;78.40
31675;DHT22;18276;45.520;11.018;2023-03-19T06:11:38;9.20;78.40
31675;DHT22;18276;45.520;11.018;2023-03-19T06:14:25;9.30;78.10
31675;DHT22;18276;45.520;11.018;2023-03-19T06:17:12;9.40;77.90
31675;DHT22;18276;45.520;11.018;2023-03-19T06:19:39;9.50;77.60
31675;DHT22;18276;45.520;11.018;2023-03-19T06:22:07;9.60;77.30
31675;DHT22;18276;45.520;11.018;2023-03-19T06:24:34;9.60;77.00
31675;DHT22;18276;45.520;11.018;2023-03-19T06:27:02;9.60;76.80
31675;DHT22;18276;45.520;11.018;2023-03-19T06:29:30;9.70;76.80
31675;DHT22;18276;45.520;11.018;2023-03-19T06:32:06;9.80;76.60
31675;DHT22;18276;45.520;11.018;2023-03-19T06:34:40;9.90;76.40
31675;DHT22;18276;45.520;11.018;2023-03-19T06:37:07;10.00;76.10
31675;DHT22;18276;45.520;11.018;2023-03-19T06:39:34;10.10;75.80
31675;DHT22;18276;45.520;11.018;2023-03-19T06:42:01;10.20;75.80
31675;DHT22;18276;45.520;11.018;2023-03-19T06:44:28;10.30;75.50
31675;DHT22;18276;45.520;11.018;2023-03-19T06:46:55;10.40;75.30
31675;DHT22;18276;45.520;11.018;2023-03-19T06:49:23;10.50;74.80
31675;DHT22;18276;45.520;11.018;2023-03-19T06:51:49;10.60;74.50
31675;DHT22;18276;45.520;11.018;2023-03-19T06:54:17;10.70;74.40
31675;DHT22;18276;45.520;11.018;2023-03-19T06:56:44;10.80;74.20
31675;DHT22;18276;45.520;11.018;2023-03-19T06:59:11;11.00;74.00
31675;DHT22;18276;45.520;11.018;2023-03-19T07:01:41;11.10;73.60
31675;DHT22;18276;45.520;11.018;2023-03-19T07:04:09;11.30;73.10
31675;DHT22;18276;45.520;11.018;2023-03-19T07:06:37;11.40;72.80
31675;DHT22;18276;45.520;11.018;2023-03-19T07:09:04;11.50;72.50
31675;DHT22;18276;45.520;11.018;2023-03-19T07:11:31;11.70;72.20
31675;DHT22;18276;45.520;11.018;2023-03-19T07:14:01;12.10;71.50
31675;DHT22;18276;45.520;11.018;2023-03-19T07:16:29;12.40;70.70
31675;DHT22;18276;45.520;11.018;2023-03-19T07:18:56;12.60;69.80
31675;DHT22;18276;45.520;11.018;2023-03-19T07:21:24;13.00;69.00
31675;DHT22;18276;45.520;11.018;2023-03-19T07:23:52;13.30;68.10
31675;DHT22;18276;45.520;11.018;2023-03-19T07:26:19;13.70;67.20
31675;DHT22;18276;45.520;11.018;2023-03-19T07:28:46;13.90;65.90
31675;DHT22;18276;45.520;11.018;2023-03-19T07:31:14;14.20;65.30
31675;DHT22;18276;45.520;11.018;2023-03-19T07:33:42;14.40;64.50
31675;DHT22;18276;45.520;11.018;2023-03-19T07:36:09;14.70;63.70
31675;DHT22;18276;45.520;11.018;2023-03-19T07:38:36;14.90;62.50
31675;DHT22;18276;45.520;11.018;2023-03-19T07:41:03;15.00;61.50
31675;DHT22;18276;45.520;11.018;2023-03-19T07:43:31;15.20;61.10
31675;DHT22;18276;45.520;11.018;2023-03-19T07:45:58;15.60;60.70
31675;DHT22;18276;45.520;11.018;2023-03-19T07:48:26;16.10;59.60
31675;DHT22;18276;45.520;11.018;2023-03-19T07:50:53;16.60;58.70
31675;DHT22;18276;45.520;11.018;2023-03-19T07:53:20;16.90;57.50
31675;DHT22;18276;45.520;11.018;2023-03-19T07:55:47;17.00;56.70
31675;DHT22;18276;45.520;11.018;2023-03-19T07:58:15;17.20;56.20
31675;DHT22;18276;45.520;11.018;2023-03-19T08:00:43;17.60;55.60
31675;DHT22;18276;45.520;11.018;2023-03-19T08:03:11;17.80;55.00
31675;DHT22;18276;45.520;11.018;2023-03-19T08:05:38;17.90;54.30
31675;DHT22;18276;45.520;11.018;2023-03-19T08:08:05;18.00;53.80
31675;DHT22;18276;45.520;11.018;2023-03-19T08:10:32;18.10;53.40
31675;DHT22;18276;45.520;11.018;2023-03-19T08:13:02;18.30;53.20
31675;DHT22;18276;45.520;11.018;2023-03-19T08:15:31;18.40;52.60
31675;DHT22;18276;45.520;11.018;2023-03-19T08:18:02;18.30;52.30
31675;DHT22;18276;45.520;11.018;2023-03-19T08:20:31;18.40;52.10
31675;DHT22;18276;45.520;11.018;2023-03-19T08:22:59;18.40;51.90
31675;DHT22;18276;45.520;11.018;2023-03-19T08:25:26;18.40;51.70
31675;DHT22;18276;45.520;11.018;2023-03-19T08:27:53;18.50;51.80
31675;DHT22;18276;45.520;11.018;2023-03-19T08:30:21;18.60;51.60
31675;DHT22;18276;45.520;11.018;2023-03-19T08:32:48;18.90;51.20
31675;DHT22;18276;45.520;11.018;2023-03-19T08:35:16;19.20;50.70
31675;DHT22;18276;45.520;11.018;2023-03-19T08:37:43;19.30;50.20
31675;DHT22;18276;45.520;11.018;2023-03-19T08:40:10;19.50;49.70
31675;DHT22;18276;45.520;11.018;2023-03-19T08:42:37;19.60;49.40
31675;DHT22;18276;45.520;11.018;2023-03-19T08:45:12;19.80;49.00
31675;DHT22;18276;45.520;11.018;2023-03-19T08:47:39;19.80;48.30
31675;DHT22;18276;45.520;11.018;2023-03-19T08:50:07;19.70;48.30
31675;DHT22;18276;45.520;11.018;2023-03-19T08:52:34;19.70;48.30
31675;DHT22;18276;45.520;11.018;2023-03-19T08:55:02;19.70;48.10
31675;DHT22;18276;45.520;11.018;2023-03-19T08:57:30;19.80;48.20
31675;DHT22;18276;45.520;11.018;2023-03-19T08:59:58;19.80;47.90
31675;DHT22;18276;45.520;11.018;2023-03-19T09:02:26;19.70;47.50
31675;DHT22;18276;45.520;11.018;2023-03-19T09:04:53;19.50;47.80
31675;DHT22;18276;45.520;11.018;2023-03-19T09:07:20;19.20;47.90
31675;DHT22;18276;45.520;11.018;2023-03-19T09:09:48;18.80;48.30
31675;DHT22;18276;45.520;11.018;2023-03-19T09:12:16;18.60;48.80
31675;DHT22;18276;45.520;11.018;2023-03-19T09:14:43;18.60;48.80
31675;DHT22;18276;45.520;11.018;2023-03-19T09:17:10;18.90;48.90
31675;DHT22;18276;45.520;11.018;2023-03-19T09:19:39;19.40;48.10
31675;DHT22;18276;45.520;11.018;2023-03-19T09:22:06;19.70;47.40
31675;DHT22;18276;45.520;11.018;2023-03-19T09:24:33;20.00;47.30
31675;DHT22;18276;45.520;11.018;2023-03-19T09:27:00;20.40;46.40
31675;DHT22;18276;45.520;11.018;2023-03-19T09:29:27;20.70;45.80
31675;DHT22;18276;45.520;11.018;2023-03-19T09:31:54;21.10;45.20
31675;DHT22;18276;45.520;11.018;2023-03-19T09:34:21;21.20;44.90
31675;DHT22;18276;45.520;11.018;2023-03-19T09:36:48;21.20;44.70
31675;DHT22;18276;45.520;11.018;2023-03-19T09:39:15;21.10;44.60
31675;DHT22;18276;45.520;11.018;2023-03-19T09:44:36;20.70;44.60
31675;DHT22;18276;45.520;11.018;2023-03-19T09:49:42;20.90;44.80
31675;DHT22;18276;45.520;11.018;2023-03-19T09:54:46;20.90;43.90
31675;DHT22;18276;45.520;11.018;2023-03-19T09:57:15;20.60;44.00
31675;DHT22;18276;45.520;11.018;2023-03-19T09:59:43;20.00;44.80
31675;DHT22;18276;45.520;11.018;2023-03-19T10:07:37;18.60;47.50
31675;DHT22;18276;45.520;11.018;2023-03-19T10:10:10;18.10;48.70
31675;DHT22;18276;45.520;11.018;2023-03-19T10:15:27;17.60;49.80
31675;DHT22;18276;45.520;11.018;2023-03-19T10:18:08;17.50;50.00
31675;DHT22;18276;45.520;11.018;2023-03-19T10:20:54;17.50;49.90
31675;DHT22;18276;45.520;11.018;2023-03-19T10:25:56;17.80;51.10
31675;DHT22;18276;45.520;11.018;2023-03-19T10:28:25;18.20;50.00
31675;DHT22;18276;45.520;11.018;2023-03-19T10:36:16;19.20;47.10
31675;DHT22;18276;45.520;11.018;2023-03-19T10:38:45;19.80;47.00
31675;DHT22;18276;45.520;11.018;2023-03-19T10:43:59;21.00;43.90
31675;DHT22;18276;45.520;11.018;2023-03-19T10:46:27;21.60;43.40
31675;DHT22;18276;45.520;11.018;2023-03-19T10:48:53;22.30;42.30
31675;DHT22;18276;45.520;11.018;2023-03-19T10:51:24;22.90;40.90
31675;DHT22;18276;45.520;11.018;2023-03-19T10:53:52;23.50;40.20
31675;DHT22;18276;45.520;11.018;2023-03-19T10:56:22;23.90;39.50
31675;DHT22;18276;45.520;11.018;2023-03-19T10:59:05;24.40;39.10
31675;DHT22;18276;45.520;11.018;2023-03-19T11:01:33;25.20;38.00
31675;DHT22;18276;45.520;11.018;2023-03-19T11:04:02;25.60;37.80
31675;DHT22;18276;45.520;11.018;2023-03-19T11:06:37;25.80;36.40
31675;DHT22;18276;45.520;11.018;2023-03-19T11:11:34;26.80;35.30
31675;DHT22;18276;45.520;11.018;2023-03-19T11:14:45;26.80;34.60
31675;DHT22;18276;45.520;11.018;2023-03-19T11:19:29;26.70;34.40
31675;DHT22;18276;45.520;11.018;2023-03-19T11:24:36;26.90;33.90
31675;DHT22;18276;45.520;11.018;2023-03-19T11:27:04;27.10;33.80
31675;DHT22;18276;45.520;11.018;2023-03-19T11:29:30;27.30;33.40
31675;DHT22;18276;45.520;11.018;2023-03-19T11:32:02;27.40;33.00
31675;DHT22;18276;45.520;11.018;2023-03-19T11:34:55;27.30;32.90
31675;DHT22;18276;45.520;11.018;2023-03-19T11:40:17;26.40;34.40
31675;DHT22;18276;45.520;11.018;2023-03-19T11:48:33;26.20;35.40
31675;DHT22;18276;45.520;11.018;2023-03-19T12:00:46;26.70;34.40
31675;DHT22;18276;45.520;11.018;2023-03-19T12:05:59;27.10;32.90
31675;DHT22;18276;45.520;11.018;2023-03-19T12:08:36;26.90;33.70
31675;DHT22;18276;45.520;11.018;2023-03-19T12:27:17;29.00;30.30
31675;DHT22;18276;45.520;11.018;2023-03-19T12:29:59;28.80;30.30
31675;DHT22;18276;45.520;11.018;2023-03-19T12:35:00;29.50;29.70
31675;DHT22;18276;45.520;11.018;2023-03-19T12:37:30;29.90;29.30
31675;DHT22;18276;45.520;11.018;2023-03-19T12:40:06;29.80;29.00
31675;DHT22;18276;45.520;11.018;2023-03-19T12:42:40;29.90;29.10
31675;DHT22;18276;45.520;11.018;2023-03-19T12:47:50;29.80;29.30
31675;DHT22;18276;45.520;11.018;2023-03-19T12:50:19;29.70;29.00
31675;DHT22;18276;45.520;11.018;2023-03-19T12:52:48;29.70;29.10
31675;DHT22;18276;45.520;11.018;2023-03-19T12:55:26;29.70;29.00
31675;DHT22;18276;45.520;11.018;2023-03-19T12:58:11;29.70;29.10
31675;DHT22;18276;45.520;11.018;2023-03-19T13:00:43;29.10;29.30
31675;DHT22;18276;45.520;11.018;2023-03-19T13:05:43;28.10;30.40
31675;DHT22;18276;45.520;11.018;2023-03-19T13:10:58;26.30;32.00
31675;DHT22;18276;45.520;11.018;2023-03-19T13:16:07;23.60;36.20
31675;DHT22;18276;45.520;11.018;2023-03-19T13:26:38;20.10;42.90
31675;DHT22;18276;45.520;11.018;2023-03-19T13:29:07;20.00;43.80
31675;DHT22;18276;45.520;11.018;2023-03-19T13:31:35;19.80;44.00
31675;DHT22;18276;45.520;11.018;2023-03-19T13:34:06;19.90;44.40
31675;DHT22;18276;45.520;11.018;2023-03-19T13:36:36;20.40;44.30
31675;DHT22;18276;45.520;11.018;2023-03-19T13:39:10;20.90;43.00
31675;DHT22;18276;45.520;11.018;2023-03-19T13:44:23;21.40;42.20
31675;DHT22;18276;45.520;11.018;2023-03-19T13:46:51;21.80;41.90
31675;DHT22;18276;45.520;11.018;2023-03-19T13:51:52;21.70;41.70
31675;DHT22;18276;45.520;11.018;2023-03-19T13:54:30;21.90;41.40
31675;DHT22;18276;45.520;11.018;2023-03-19T14:01:55;20.60;42.80
31675;DHT22;18276;45.520;11.018;2023-03-19T14:07:09;20.50;43.30
31675;DHT22;18276;45.520;11.018;2023-03-19T14:09:41;20.50;43.50
31675;DHT22;18276;45.520;11.018;2023-03-19T14:14:42;20.10;43.80
31675;DHT22;18276;45.520;11.018;2023-03-19T14:17:14;19.70;44.50
31675;DHT22;18276;45.520;11.018;2023-03-19T14:19:45;19.30;45.50
31675;DHT22;18276;45.520;11.018;2023-03-19T14:24:52;19.00;46.50
31675;DHT22;18276;45.520;11.018;2023-03-19T14:27:26;18.80;46.70
31675;DHT22;18276;45.520;11.018;2023-03-19T14:29:55;18.60;46.90
31675;DHT22;18276;45.520;11.018;2023-03-19T14:32:36;18.50;47.10
31675;DHT22;18276;45.520;11.018;2023-03-19T14:35:09;18.50;47.30
31675;DHT22;18276;45.520;11.018;2023-03-19T14:40:21;18.40;47.60
31675;DHT22;18276;45.520;11.018;2023-03-19T14:53:28;17.70;48.30
31675;DHT22;18276;45.520;11.018;2023-03-19T14:55:58;17.80;47.80
31675;DHT22;18276;45.520;11.018;2023-03-19T14:58:28;17.80;47.80
31675;DHT22;18276;45.520;11.018;2023-03-19T15:00:55;17.70;47.60
31675;DHT22;18276;45.520;11.018;2023-03-19T15:03:34;17.70;48.00
31675;DHT22;18276;45.520;11.018;2023-03-19T15:06:05;17.70;47.80
31675;DHT22;18276;45.520;11.018;2023-03-19T15:08:34;17.80;48.20
31675;DHT22;18276;45.520;11.018;2023-03-19T15:18:58;17.30;50.60
31675;DHT22;18276;45.520;11.018;2023-03-19T15:21:27;17.20;51.20
31675;DHT22;18276;45.520;11.018;2023-03-19T15:23:54;17.10;51.60
31675;DHT22;18276;45.520;11.018;2023-03-19T15:26:28;17.10;52.00
31675;DHT22;18276;45.520;11.018;2023-03-19T15:28:55;17.10;52.30
31675;DHT22;18276;45.520;11.018;2023-03-19T15:31:27;17.00;51.90
31675;DHT22;18276;45.520;11.018;2023-03-19T15:34:26;16.90;51.90
31675;DHT22;18276;45.520;11.018;2023-03-19T15:36:55;16.70;52.30
31675;DHT22;18276;45.520;11.018;2023-03-19T15:39:23;16.60;52.60
31675;DHT22;18276;45.520;11.018;2023-03-19T15:41:52;16.40;52.70
31675;DHT22;18276;45.520;11.018;2023-03-19T15:44:23;16.40;52.80
31675;DHT22;18276;45.520;11.018;2023-03-19T15:46:51;16.40;52.80
31675;DHT22;18276;45.520;11.018;2023-03-19T15:49:23;16.30;52.90
31675;DHT22;18276;45.520;11.018;2023-03-19T15:51:51;16.20;53.10
31675;DHT22;18276;45.520;11.018;2023-03-19T15:54:20;16.20;53.30
31675;DHT22;18276;45.520;11.018;2023-03-19T15:56:48;16.10;53.40
31675;DHT22;18276;45.520;11.018;2023-03-19T15:59:17;16.00;53.50
31675;DHT22;18276;45.520;11.018;2023-03-19T16:01:44;16.10;54.20
31675;DHT22;18276;45.520;11.018;2023-03-19T16:04:13;16.00;54.20
31675;DHT22;18276;45.520;11.018;2023-03-19T16:06:41;16.00;54.40
31675;DHT22;18276;45.520;11.018;2023-03-19T16:11:44;15.90;55.10
31675;DHT22;18276;45.520;11.018;2023-03-19T16:16:45;15.70;56.20
31675;DHT22;18276;45.520;11.018;2023-03-19T16:21:58;15.60;57.20
31675;DHT22;18276;45.520;11.018;2023-03-19T16:24:30;15.50;57.70
31675;DHT22;18276;45.520;11.018;2023-03-19T16:27:04;15.50;58.00
31675;DHT22;18276;45.520;11.018;2023-03-19T16:29:44;15.50;58.30
31675;DHT22;18276;45.520;11.018;2023-03-19T16:34:44;15.30;58.50
31675;DHT22;18276;45.520;11.018;2023-03-19T16:37:30;15.30;58.60
31675;DHT22;18276;45.520;11.018;2023-03-19T16:40:33;15.30;59.00
31675;DHT22;18276;45.520;11.018;2023-03-19T16:43:05;15.20;59.10
31675;DHT22;18276;45.520;11.018;2023-03-19T16:45:32;15.20;59.50
31675;DHT22;18276;45.520;11.018;2023-03-19T16:48:01;15.10;59.50
31675;DHT22;18276;45.520;11.018;2023-03-19T16:50:39;15.10;59.90
31675;DHT22;18276;45.520;11.018;2023-03-19T16:55:51;15.00;60.40
31675;DHT22;18276;45.520;11.018;2023-03-19T17:00:51;15.00;60.70
31675;DHT22;18276;45.520;11.018;2023-03-19T17:03:18;15.00;60.90
31675;DHT22;18276;45.520;11.018;2023-03-19T17:05:46;15.00;61.30
31675;DHT22;18276;45.520;11.018;2023-03-19T17:08:14;14.90;61.60
31675;DHT22;18276;45.520;11.018;2023-03-19T17:10:45;14.90;61.80
31675;DHT22;18276;45.520;11.018;2023-03-19T17:13:22;14.90;62.20
31675;DHT22;18276;45.520;11.018;2023-03-19T17:15:57;14.90;62.40
31675;DHT22;18276;45.520;11.018;2023-03-19T17:18:31;14.80;62.60
31675;DHT22;18276;45.520;11.018;2023-03-19T17:23:30;14.70;62.90
31675;DHT22;18276;45.520;11.018;2023-03-19T17:25:58;14.70;62.90
31675;DHT22;18276;45.520;11.018;2023-03-19T17:28:25;14.60;63.10
31675;DHT22;18276;45.520;11.018;2023-03-19T17:30:52;14.60;63.10
31675;DHT22;18276;45.520;11.018;2023-03-19T17:33:22;14.70;63.30
31675;DHT22;18276;45.520;11.018;2023-03-19T17:35:51;14.60;63.50
31675;DHT22;18276;45.520;11.018;2023-03-19T17:38:20;14.60;63.70
31675;DHT22;18276;45.520;11.018;2023-03-19T17:40:47;14.60;63.70
31675;DHT22;18276;45.520;11.018;2023-03-19T17:43:14;14.60;63.80
31675;DHT22;18276;45.520;11.018;2023-03-19T17:45:43;14.60;63.90
31675;DHT22;18276;45.520;11.018;2023-03-19T17:48:18;14.60;64.20
31675;DHT22;18276;45.520;11.018;2023-03-19T17:50:48;14.60;64.60
31675;DHT22;18276;45.520;11.018;2023-03-19T17:53:15;14.60;64.80
31675;DHT22;18276;45.520;11.018;2023-03-19T17:55:44;14.60;65.00
31675;DHT22;18276;45.520;11.018;2023-03-19T17:58:17;14.60;65.40
31675;DHT22;18276;45.520;11.018;2023-03-19T18:00:46;14.60;65.80
31675;DHT22;18276;45.520;11.018;2023-03-19T18:03:17;14.60;65.70
31675;DHT22;18276;45.520;11.018;2023-03-19T18:05:44;14.60;65.90
31675;DHT22;18276;45.520;11.018;2023-03-19T18:08:16;14.60;66.00
31675;DHT22;18276;45.520;11.018;2023-03-19T18:10:44;14.60;66.30
31675;DHT22;18276;45.520;11.018;2023-03-19T18:13:11;14.50;66.20
31675;DHT22;18276;45.520;11.018;2023-03-19T18:15:40;14.50;66.40